createdAt,value
2023-02-24T00:05:24.874Z,22.50
2023-02-24T00:15:31.237Z,20.80
2023-02-24T00:25:37.593Z,19.50
2023-02-24T00:35:43.906Z,20.80
2023-02-24T00:45:52.712Z,20.00
2023-02-24T00:56:02.162Z,21.20
2023-02-24T01:06:08.577Z,20.90
2023-02-24T01:16:16.013Z,20.90
2023-02-24T01:26:22.684Z,21.70
2023-02-24T01:36:29.416Z,23.20
2023-02-24T01:46:40.523Z,21.10
2023-02-24T01:56:48.987Z,19.30
2023-02-24T02:06:55.350Z,21.90
2023-02-24T02:17:38.613Z,19.40
2023-02-24T02:28:14.901Z,18.40
2023-02-24T02:38:39.252Z,20.00
2023-02-24T02:48:53.334Z,19.70
2023-02-24T02:59:01.082Z,17.40
2023-02-24T03:09:13.591Z,17.20
2023-02-24T03:19:24.228Z,19.00
2023-02-24T03:29:56.737Z,21.60
2023-02-24T03:40:12.801Z,22.90
2023-02-24T03:50:22.011Z,22.00
2023-02-24T04:00:40.236Z,21.40
2023-02-24T04:11:06.419Z,20.25
2023-02-24T04:21:13.191Z,24.20
2023-02-24T04:31:20.809Z,27.20
2023-02-24T04:41:27.335Z,24.80
2023-02-24T04:51:35.311Z,22.50
2023-02-24T05:01:43.506Z,22.50
2023-02-24T05:11:52.491Z,23.10
2023-02-24T05:21:59.206Z,21.20
2023-02-24T05:32:06.784Z,21.40
2023-02-24T05:42:13.200Z,22.00
2023-02-24T05:52:19.696Z,21.10
2023-02-24T06:02:28.851Z,22.00
2023-02-24T06:12:35.834Z,21.70
2023-02-24T06:22:43.720Z,23.10
2023-02-24T06:32:50.773Z,29.20
2023-02-24T06:42:57.209Z,29.00
2023-02-24T06:53:03.878Z,29.60
2023-02-24T07:03:17.326Z,30.40
2023-02-24T07:13:29.950Z,32.40
2023-02-24T07:23:36.288Z,32.40
2023-02-24T07:33:46.262Z,30.40
2023-02-24T07:43:55.512Z,34.00
2023-02-24T07:54:02.553Z,32.30
2023-02-24T08:04:13.587Z,32.50
2023-02-24T08:14:25.004Z,30.40
2023-02-24T08:24:31.333Z,27.60
2023-02-24T08:34:38.292Z,30.90
2023-02-24T08:44:46.220Z,30.40
2023-02-24T08:54:55.744Z,30.90
2023-02-24T09:05:08.751Z,30.90
2023-02-24T09:15:17.901Z,31.70
2023-02-24T09:25:41.477Z,31.80
2023-02-24T09:36:21.185Z,32.40
2023-02-24T09:46:27.888Z,33.70
2023-02-24T09:56:43.672Z,36.50
2023-02-24T10:06:52.510Z,40.70
2023-02-24T10:17:17.872Z,36.20
2023-02-24T10:27:33.001Z,34.20
2023-02-24T10:37:39.334Z,33.90
2023-02-24T10:47:57.641Z,32.20
2023-02-24T10:58:07.953Z,33.00
2023-02-24T11:08:49.758Z,29.30
2023-02-24T11:18:57.590Z,27.40
2023-02-24T11:29:16.535Z,26.10
2023-02-24T11:39:57.433Z,25.60
2023-02-24T11:50:27.742Z,26.60
2023-02-24T12:00:38.508Z,26.60
2023-02-24T12:10:51.121Z,28.30
2023-02-24T12:21:08.995Z,28.30
2023-02-24T12:31:38.747Z,30.20
2023-02-24T12:41:55.254Z,31.50
2023-02-24T12:52:23.674Z,30.90
2023-02-24T13:02:43.527Z,32.50
2023-02-24T13:12:53.323Z,32.50
2023-02-24T13:23:01.058Z,31.40
2023-02-24T13:33:19.454Z,31.80
2023-02-24T13:43:30.320Z,32.20
2023-02-24T13:53:54.314Z,29.70
2023-02-24T14:04:16.945Z,27.50
2023-02-24T14:14:23.500Z,28.60
2023-02-24T14:24:30.340Z,30.00
2023-02-24T14:34:36.655Z,32.50
2023-02-24T14:44:48.694Z,31.50
2023-02-24T14:54:56.760Z,31.90
2023-02-24T15:05:03.116Z,26.60
2023-02-24T15:15:31.185Z,21.40
2023-02-24T15:25:46.569Z,22.30
2023-02-24T15:35:59.646Z,17.80
2023-02-24T15:46:29.002Z,19.60
2023-02-24T15:56:36.336Z,19.80
2023-02-24T16:06:55.429Z,17.30
2023-02-24T16:17:08.200Z,21.30
2023-02-24T16:27:17.724Z,21.70
2023-02-24T16:37:28.256Z,22.10
2023-02-24T16:47:35.789Z,25.10
2023-02-24T16:57:43.089Z,24.70
2023-02-24T17:07:50.787Z,28.70
2023-02-24T17:17:57.108Z,14.40
2023-02-24T17:28:06.194Z,6.00
2023-02-24T17:38:17.211Z,9.60
2023-02-24T17:48:23.773Z,13.40
2023-02-24T17:58:30.475Z,19.10
2023-02-24T18:08:37.740Z,15.30
2023-02-24T18:18:44.029Z,18.80
2023-02-24T18:28:53.267Z,41.90
2023-02-24T18:38:59.673Z,40.00
2023-02-24T18:49:07.439Z,32.20
2023-02-24T18:59:13.698Z,26.50
2023-02-24T19:09:23.703Z,31.10
2023-02-24T19:19:30.013Z,32.90
2023-02-24T19:29:36.377Z,20.40
2023-02-24T19:39:42.688Z,17.70
2023-02-24T19:49:48.991Z,18.30
2023-02-24T19:59:55.276Z,19.20
2023-02-24T20:10:02.018Z,17.80
